ZSHC

Hangzhou Xiaoshan International Airport

Airport
ICAO code
ZSHC
IATA Code
HGH
Summary
ICAO Region
APAC
ICAO Territory
Location

Xiaoshan, Zhejiang

Serving
Hangzhou
Elevation
23 ft
Coordinates
30° 13' 46" N , 120° 26' 4" E
Metar
ZSHC 241830Z 26003MPS 9999 -SHRA BKN040 21/20 Q1010 NOSIG

Hangzhou Xiaoshan International Airport is the principal airport serving Hangzhou, a major city in the Yangtze River Delta region of the People's Republic of China and the provincial capital of Zhejiang.

Airport map

Aerial View

SKYbrary Partners:

Safety knowledge contributed by: